createdAt,value
2017-12-15T00:00:44.094Z,4.22
2017-12-15T00:03:12.151Z,4.27
2017-12-15T00:05:40.494Z,4.46
2017-12-15T00:08:08.838Z,4.67
2017-12-15T00:10:37.192Z,4.50
2017-12-15T00:13:05.574Z,4.91
2017-12-15T00:15:33.927Z,4.48
2017-12-15T00:18:02.261Z,4.61
2017-12-15T00:20:30.603Z,4.50
2017-12-15T00:22:58.953Z,4.64
2017-12-15T00:25:27.331Z,4.83
2017-12-15T00:27:55.671Z,4.65
2017-12-15T00:30:24.011Z,4.59
2017-12-15T00:32:52.352Z,4.58
2017-12-15T00:35:20.701Z,4.97
2017-12-15T00:37:49.076Z,4.90
2017-12-15T00:40:17.420Z,4.80
2017-12-15T00:42:45.762Z,4.97
2017-12-15T00:45:14.116Z,4.96
2017-12-15T00:47:42.458Z,5.45
2017-12-15T00:50:10.852Z,5.33
2017-12-15T00:52:39.201Z,5.24
2017-12-15T00:55:07.553Z,5.50
2017-12-15T00:57:36.787Z,5.54
2017-12-15T01:00:05.152Z,5.77
2017-12-15T01:02:33.644Z,5.01
2017-12-15T01:05:01.974Z,5.19
2017-12-15T01:07:30.341Z,4.50
2017-12-15T01:09:58.691Z,4.78
2017-12-15T01:12:27.030Z,5.43
2017-12-15T01:14:55.404Z,4.96
2017-12-15T01:17:23.736Z,5.24
2017-12-15T01:19:52.074Z,4.97
2017-12-15T01:22:20.425Z,5.47
2017-12-15T01:24:48.768Z,6.01
2017-12-15T01:27:17.292Z,6.00
2017-12-15T01:29:45.632Z,5.59
2017-12-15T01:32:13.967Z,5.89
2017-12-15T01:34:42.311Z,6.20
2017-12-15T01:37:10.676Z,6.23
2017-12-15T01:39:39.062Z,6.03
2017-12-15T01:42:07.412Z,5.88
2017-12-15T01:44:35.747Z,5.28
2017-12-15T01:47:04.092Z,4.91
2017-12-15T01:49:32.426Z,5.03
2017-12-15T01:52:00.816Z,4.80
2017-12-15T01:54:29.161Z,5.24
2017-12-15T01:56:57.511Z,5.12
2017-12-15T01:59:25.850Z,5.50
2017-12-15T02:01:54.212Z,5.46
2017-12-15T02:04:22.597Z,5.32
2017-12-15T02:06:50.942Z,5.51
2017-12-15T02:09:19.295Z,5.38
2017-12-15T02:11:47.635Z,5.08
2017-12-15T02:14:15.986Z,5.03
2017-12-15T02:16:44.379Z,5.09
2017-12-15T02:19:12.719Z,4.95
2017-12-15T02:21:41.055Z,5.17
2017-12-15T02:24:09.406Z,5.12
2017-12-15T02:26:37.762Z,4.94
2017-12-15T02:29:06.155Z,4.32
2017-12-15T02:31:34.504Z,4.90
2017-12-15T02:34:02.838Z,5.22
2017-12-15T02:36:31.187Z,5.33
2017-12-15T02:38:59.519Z,4.87
2017-12-15T02:41:27.899Z,5.09
2017-12-15T02:43:56.247Z,4.92
2017-12-15T02:46:24.596Z,4.66
2017-12-15T02:48:52.936Z,4.67
2017-12-15T02:51:21.283Z,4.74
2017-12-15T02:53:49.767Z,4.50
2017-12-15T02:56:18.123Z,4.37
2017-12-15T02:58:46.527Z,4.54
2017-12-15T03:01:14.870Z,4.88
2017-12-15T03:03:43.207Z,4.47
2017-12-15T03:06:11.679Z,4.76
2017-12-15T03:08:40.019Z,4.82
2017-12-15T03:11:08.384Z,4.69
2017-12-15T03:13:36.731Z,4.45
2017-12-15T03:16:05.059Z,4.58
2017-12-15T03:18:33.429Z,4.81
2017-12-15T03:21:01.775Z,4.18
2017-12-15T03:23:30.129Z,4.36
2017-12-15T03:25:58.480Z,4.71
2017-12-15T03:28:26.838Z,4.42
2017-12-15T03:30:55.202Z,4.19
2017-12-15T03:33:23.544Z,4.12
2017-12-15T03:35:51.905Z,4.48
2017-12-15T03:38:20.243Z,4.74
2017-12-15T03:40:48.590Z,4.24
2017-12-15T03:43:16.957Z,4.42
2017-12-15T03:45:46.010Z,4.56
2017-12-15T03:48:14.342Z,4.55
2017-12-15T03:50:42.699Z,4.61
2017-12-15T03:53:11.038Z,4.29
2017-12-15T03:55:39.429Z,4.72
2017-12-15T03:58:07.796Z,4.86
2017-12-15T04:00:38.625Z,4.80
2017-12-15T04:03:06.962Z,4.07
2017-12-15T04:05:35.337Z,4.53
2017-12-15T04:08:03.699Z,4.60
2017-12-15T04:10:32.031Z,4.82
2017-12-15T04:13:00.586Z,4.12
2017-12-15T04:15:28.934Z,4.65
2017-12-15T04:17:57.411Z,4.78
2017-12-15T04:20:25.746Z,4.76
2017-12-15T04:22:54.086Z,4.75
2017-12-15T04:25:22.437Z,3.99
2017-12-15T04:27:50.772Z,4.23
2017-12-15T04:30:19.142Z,4.39
2017-12-15T04:32:47.494Z,4.21
2017-12-15T04:35:15.827Z,4.37
2017-12-15T04:37:44.210Z,4.72
2017-12-15T04:40:12.560Z,4.82
2017-12-15T04:42:40.912Z,4.00
2017-12-15T04:45:09.264Z,4.77
2017-12-15T04:47:37.615Z,4.43
2017-12-15T04:50:05.995Z,4.65
2017-12-15T04:52:34.335Z,4.14
2017-12-15T04:55:02.683Z,4.46
2017-12-15T04:57:31.022Z,4.69
2017-12-15T04:59:59.374Z,4.86
2017-12-15T05:02:27.763Z,5.30
2017-12-15T05:04:56.106Z,5.44
2017-12-15T05:07:24.461Z,5.37
2017-12-15T05:09:52.815Z,4.50
2017-12-15T05:12:21.152Z,4.20
2017-12-15T05:14:49.539Z,4.35
2017-12-15T05:17:17.876Z,3.99
2017-12-15T05:19:46.219Z,4.09
2017-12-15T05:22:14.555Z,4.35
2017-12-15T05:24:42.932Z,4.46
2017-12-15T05:27:11.376Z,4.08
2017-12-15T05:29:39.759Z,4.08
2017-12-15T05:32:08.110Z,4.12
2017-12-15T05:34:36.464Z,3.81
2017-12-15T05:37:04.812Z,3.86
2017-12-15T05:39:33.259Z,4.09
2017-12-15T05:42:01.638Z,4.15
2017-12-15T05:44:30.071Z,4.47
2017-12-15T05:46:58.547Z,4.03
2017-12-15T05:49:26.911Z,4.74
2017-12-15T05:51:55.280Z,4.83
2017-12-15T05:54:23.644Z,4.71
2017-12-15T05:56:51.986Z,4.61
2017-12-15T05:59:20.337Z,4.66
2017-12-15T06:01:48.705Z,4.83
2017-12-15T06:04:17.120Z,4.48
2017-12-15T06:06:45.473Z,4.38
2017-12-15T06:09:13.861Z,4.34
2017-12-15T06:11:42.222Z,4.84
2017-12-15T06:14:10.564Z,5.03
2017-12-15T06:16:38.944Z,4.57
2017-12-15T06:19:07.302Z,4.42
2017-12-15T06:21:35.670Z,4.59
2017-12-15T06:24:04.026Z,4.23
2017-12-15T06:26:32.389Z,4.28
2017-12-15T06:29:00.770Z,4.26
2017-12-15T06:31:29.144Z,4.36
2017-12-15T06:33:57.531Z,4.22
2017-12-15T06:36:25.886Z,4.19
2017-12-15T06:38:54.242Z,4.10
2017-12-15T06:41:22.632Z,3.96
2017-12-15T06:43:51.042Z,3.84
2017-12-15T06:46:19.404Z,3.72
2017-12-15T06:48:47.754Z,3.82
2017-12-15T06:51:16.109Z,3.79
2017-12-15T06:53:44.519Z,3.55
2017-12-15T06:56:12.936Z,3.54
2017-12-15T06:58:41.354Z,4.06
2017-12-15T07:01:09.704Z,3.95
2017-12-15T07:03:38.071Z,3.89
2017-12-15T07:06:06.450Z,3.88
2017-12-15T07:08:34.815Z,3.90
2017-12-15T07:11:03.172Z,3.83
2017-12-15T07:13:31.530Z,3.71
2017-12-15T07:15:59.880Z,3.75
2017-12-15T07:18:28.268Z,3.43
2017-12-15T07:20:56.614Z,3.10
2017-12-15T07:23:24.962Z,3.27
2017-12-15T07:25:53.323Z,3.46
2017-12-15T07:28:21.667Z,3.23
2017-12-15T07:30:50.113Z,3.72
2017-12-15T07:33:18.489Z,3.80
2017-12-15T07:35:46.956Z,3.55
2017-12-15T07:38:15.316Z,3.91
2017-12-15T07:40:43.675Z,3.41
2017-12-15T07:43:12.099Z,4.16
2017-12-15T07:45:40.453Z,4.36
2017-12-15T07:48:08.811Z,3.71
2017-12-15T07:50:37.196Z,3.85
2017-12-15T07:53:05.584Z,3.85
2017-12-15T07:55:33.975Z,3.50
2017-12-15T07:58:02.312Z,4.15
2017-12-15T08:00:30.652Z,4.08
2017-12-15T08:02:59.012Z,4.23
2017-12-15T08:05:27.377Z,4.13
2017-12-15T08:07:55.762Z,3.94
2017-12-15T08:10:24.108Z,3.91
2017-12-15T08:12:52.500Z,4.21
2017-12-15T08:15:20.839Z,4.69
2017-12-15T08:17:49.219Z,4.83
2017-12-15T08:20:17.748Z,4.47
2017-12-15T08:22:46.105Z,5.02
2017-12-15T08:25:14.477Z,4.65
2017-12-15T08:27:42.814Z,4.56
2017-12-15T08:30:11.172Z,5.19
2017-12-15T08:32:39.734Z,5.00
2017-12-15T08:35:08.123Z,5.27
2017-12-15T08:37:36.462Z,5.12
2017-12-15T08:40:04.811Z,4.53
2017-12-15T08:42:33.155Z,5.04
2017-12-15T08:45:01.568Z,5.52
2017-12-15T08:47:29.915Z,5.57
2017-12-15T08:49:58.292Z,5.65
2017-12-15T08:52:26.628Z,5.56
2017-12-15T08:54:54.964Z,5.37
2017-12-15T08:57:23.459Z,5.31
2017-12-15T08:59:51.823Z,5.46
2017-12-15T09:02:20.171Z,5.42
2017-12-15T09:04:48.540Z,5.44
2017-12-15T09:07:16.905Z,5.84
2017-12-15T09:09:45.302Z,5.40
2017-12-15T09:12:13.647Z,5.08
2017-12-15T09:14:42.003Z,5.35
2017-12-15T09:17:10.342Z,5.35
2017-12-15T09:19:38.696Z,5.74
2017-12-15T09:22:07.093Z,5.39
2017-12-15T09:24:35.456Z,5.07
2017-12-15T09:27:03.808Z,5.63
2017-12-15T09:29:32.180Z,4.89
2017-12-15T09:32:00.523Z,5.40
2017-12-15T09:34:29.074Z,5.41
2017-12-15T09:36:57.516Z,5.98
2017-12-15T09:39:25.869Z,5.68
2017-12-15T09:41:54.223Z,5.86
2017-12-15T09:44:22.579Z,6.17
2017-12-15T09:46:50.983Z,6.02
2017-12-15T09:49:19.333Z,6.71
2017-12-15T09:51:47.683Z,7.25
2017-12-15T09:54:16.197Z,7.10
2017-12-15T09:56:44.618Z,6.93
2017-12-15T09:59:13.019Z,6.76
2017-12-15T10:01:41.559Z,6.64
2017-12-15T10:04:09.898Z,6.46
2017-12-15T10:06:38.260Z,6.18
2017-12-15T10:09:06.599Z,6.27
2017-12-15T10:11:35.087Z,5.87
2017-12-15T10:14:03.431Z,5.70
2017-12-15T10:16:31.790Z,5.87
2017-12-15T10:19:00.137Z,5.93
2017-12-15T10:21:28.479Z,6.13
2017-12-15T10:23:56.858Z,6.28
2017-12-15T10:26:25.210Z,6.73
2017-12-15T10:28:53.568Z,6.42
2017-12-15T10:31:21.926Z,6.17
2017-12-15T10:33:50.291Z,5.92
2017-12-15T10:36:18.671Z,6.19
2017-12-15T10:38:47.032Z,5.79
2017-12-15T10:41:15.385Z,5.75
2017-12-15T10:43:43.759Z,6.04
2017-12-15T10:46:12.100Z,6.65
2017-12-15T10:48:40.604Z,5.88
2017-12-15T10:51:08.980Z,5.62
2017-12-15T10:53:37.324Z,6.69
2017-12-15T10:56:05.710Z,6.11
2017-12-15T10:58:34.065Z,6.37
2017-12-15T11:01:02.480Z,5.91
2017-12-15T11:03:30.837Z,5.87
2017-12-15T11:05:59.310Z,5.74
2017-12-15T11:08:27.672Z,5.91
2017-12-15T11:10:56.027Z,6.30
2017-12-15T11:13:24.379Z,6.46
2017-12-15T11:15:52.733Z,5.90
2017-12-15T11:18:21.112Z,6.11
2017-12-15T11:20:49.446Z,6.06
2017-12-15T11:23:17.817Z,5.72
2017-12-15T11:25:46.176Z,5.50
2017-12-15T11:28:14.633Z,5.97
2017-12-15T11:30:43.155Z,6.48
2017-12-15T11:33:11.482Z,6.88
2017-12-15T11:38:07.268Z,6.66
2017-12-15T11:40:35.765Z,6.34
2017-12-15T11:43:04.155Z,5.88
2017-12-15T11:45:32.582Z,6.37
2017-12-15T11:48:00.920Z,6.78
2017-12-15T11:50:29.258Z,6.73
2017-12-15T11:52:57.621Z,7.41
2017-12-15T11:55:26.022Z,7.60
2017-12-15T11:57:54.355Z,7.54
2017-12-15T12:00:22.732Z,7.35
2017-12-15T12:02:51.078Z,7.16
2017-12-15T12:05:19.563Z,7.29
2017-12-15T12:07:47.941Z,7.65
2017-12-15T12:10:16.283Z,7.59
2017-12-15T12:12:44.630Z,7.95
2017-12-15T12:15:12.963Z,8.16
2017-12-15T12:17:41.373Z,8.19
2017-12-15T12:20:09.716Z,7.95
2017-12-15T12:22:38.055Z,8.14
2017-12-15T12:25:06.398Z,9.06
2017-12-15T12:27:34.738Z,9.95
2017-12-15T12:30:03.128Z,10.02
2017-12-15T12:32:31.482Z,10.91
2017-12-15T12:34:59.836Z,10.67
2017-12-15T12:37:28.178Z,10.25
2017-12-15T12:39:56.529Z,10.29
2017-12-15T12:42:24.894Z,11.17
2017-12-15T12:44:53.234Z,12.08
2017-12-15T12:47:21.586Z,13.30
2017-12-15T12:49:49.929Z,13.06
2017-12-15T12:52:18.272Z,13.43
2017-12-15T12:54:46.651Z,13.28
2017-12-15T12:57:14.990Z,13.25
2017-12-15T12:59:43.341Z,13.56
2017-12-15T13:02:11.675Z,12.88
2017-12-15T13:04:40.023Z,12.08
2017-12-15T13:07:08.412Z,12.08
2017-12-15T13:09:36.858Z,12.21
2017-12-15T13:12:06.062Z,11.95
2017-12-15T13:14:34.419Z,11.50
2017-12-15T13:17:02.781Z,10.76
2017-12-15T13:19:31.159Z,10.67
2017-12-15T13:22:00.234Z,10.02
2017-12-15T13:24:28.576Z,9.33
2017-12-15T13:26:56.913Z,9.02
2017-12-15T13:29:25.241Z,8.23
2017-12-15T13:31:53.615Z,7.93
2017-12-15T13:34:21.957Z,7.92
2017-12-15T13:36:50.302Z,8.15
2017-12-15T13:39:18.652Z,7.63
2017-12-15T13:41:47.006Z,7.23
2017-12-15T13:44:15.375Z,7.44
2017-12-15T13:46:43.723Z,7.30
2017-12-15T13:49:12.079Z,7.38
2017-12-15T13:51:40.423Z,7.33
2017-12-15T13:54:08.784Z,7.25
2017-12-15T13:56:37.214Z,6.99
2017-12-15T13:59:05.569Z,6.60
2017-12-15T14:01:33.944Z,6.60
2017-12-15T14:04:02.286Z,6.74
2017-12-15T14:06:30.633Z,6.53
2017-12-15T14:08:59.006Z,6.00
2017-12-15T14:11:27.365Z,5.71
2017-12-15T14:13:55.697Z,5.80
2017-12-15T14:16:24.062Z,5.69
2017-12-15T14:18:52.403Z,5.82
2017-12-15T14:21:20.782Z,5.29
2017-12-15T14:23:49.120Z,5.18
2017-12-15T14:26:17.469Z,5.03
2017-12-15T14:28:45.819Z,5.24
2017-12-15T14:31:14.167Z,5.23
2017-12-15T14:33:42.593Z,5.12
2017-12-15T14:36:10.936Z,4.92
2017-12-15T14:38:39.292Z,4.70
2017-12-15T14:41:07.635Z,4.99
2017-12-15T14:43:36.007Z,5.04
2017-12-15T14:46:04.406Z,5.11
2017-12-15T14:48:32.752Z,5.08
2017-12-15T14:51:01.228Z,5.08
2017-12-15T14:53:29.567Z,4.87
2017-12-15T14:55:57.949Z,4.89
2017-12-15T14:58:26.351Z,4.58
2017-12-15T15:00:54.694Z,4.60
2017-12-15T15:03:23.054Z,4.68
2017-12-15T15:05:51.399Z,4.59
2017-12-15T15:08:19.744Z,4.75
2017-12-15T15:10:48.290Z,4.41
2017-12-15T15:13:16.632Z,4.17
2017-12-15T15:15:44.983Z,3.68
2017-12-15T15:18:13.322Z,3.91
2017-12-15T15:20:41.665Z,4.18
2017-12-15T15:23:10.040Z,4.04
2017-12-15T15:25:38.382Z,4.39
2017-12-15T15:28:06.751Z,4.50
2017-12-15T15:30:35.091Z,4.22
2017-12-15T15:33:03.438Z,4.43
2017-12-15T15:35:31.920Z,4.50
2017-12-15T15:38:00.263Z,4.59
2017-12-15T15:40:28.601Z,4.49
2017-12-15T15:42:56.946Z,4.67
2017-12-15T15:45:25.312Z,4.62
2017-12-15T15:47:53.725Z,4.47
2017-12-15T15:50:22.054Z,4.30
2017-12-15T15:52:50.399Z,4.36
2017-12-15T15:55:18.812Z,4.54
2017-12-15T15:57:47.141Z,5.19
2017-12-15T16:00:15.535Z,4.98
2017-12-15T16:02:43.877Z,5.23
2017-12-15T16:05:12.230Z,5.33
2017-12-15T16:07:40.567Z,5.07
2017-12-15T16:10:08.915Z,5.03
2017-12-15T16:12:37.287Z,4.89
2017-12-15T16:15:05.631Z,5.00
2017-12-15T16:17:33.965Z,4.61
2017-12-15T16:20:02.366Z,4.90
2017-12-15T16:22:30.763Z,4.86
2017-12-15T16:24:59.135Z,4.90
2017-12-15T16:27:27.526Z,4.76
2017-12-15T16:29:56.019Z,4.90
2017-12-15T16:32:24.359Z,4.45
2017-12-15T16:34:52.719Z,4.43
2017-12-15T16:37:21.053Z,4.10
2017-12-15T16:39:49.419Z,4.31
2017-12-15T16:42:17.862Z,4.73
2017-12-15T16:44:46.203Z,4.94
2017-12-15T16:47:14.573Z,4.84
2017-12-15T16:49:42.928Z,4.73
2017-12-15T16:52:11.272Z,4.84
2017-12-15T16:54:39.828Z,4.82
2017-12-15T16:57:08.165Z,4.70
2017-12-15T16:59:36.514Z,4.88
2017-12-15T17:02:04.861Z,4.92
2017-12-15T17:04:33.226Z,4.79
2017-12-15T17:07:01.629Z,4.93
2017-12-15T17:09:29.991Z,4.72
2017-12-15T17:11:58.370Z,4.41
2017-12-15T17:14:26.723Z,3.82
2017-12-15T17:16:55.152Z,3.98
2017-12-15T17:19:23.473Z,4.07
2017-12-15T17:21:51.867Z,3.97
2017-12-15T17:24:20.197Z,3.75
2017-12-15T17:26:48.556Z,3.66
2017-12-15T17:29:16.925Z,3.35
2017-12-15T17:31:45.270Z,3.27
2017-12-15T17:34:13.630Z,3.55
2017-12-15T17:36:41.968Z,3.27
2017-12-15T17:39:10.295Z,3.32
2017-12-15T17:41:38.684Z,3.37
2017-12-15T17:44:07.031Z,3.36
2017-12-15T17:46:35.374Z,2.97
2017-12-15T17:49:03.746Z,3.31
2017-12-15T17:51:32.066Z,3.31
2017-12-15T17:54:00.454Z,2.95
2017-12-15T17:56:28.812Z,2.93
2017-12-15T17:58:57.187Z,2.45
2017-12-15T18:01:25.512Z,2.56
2017-12-15T18:03:53.865Z,2.32
2017-12-15T18:06:22.235Z,2.03
2017-12-15T18:08:50.610Z,2.12
2017-12-15T18:11:18.975Z,2.13
2017-12-15T18:13:47.319Z,2.19
2017-12-15T18:16:15.685Z,2.19
2017-12-15T18:18:44.060Z,2.01
2017-12-15T18:21:12.406Z,1.46
2017-12-15T18:23:40.756Z,1.66
2017-12-15T18:26:09.116Z,1.75
2017-12-15T18:28:37.467Z,1.55
2017-12-15T18:31:05.861Z,1.44
2017-12-15T18:33:34.203Z,1.46
2017-12-15T18:36:02.556Z,0.99
2017-12-15T18:38:30.893Z,1.17
2017-12-15T18:40:59.233Z,1.55
2017-12-15T18:43:27.690Z,1.91
2017-12-15T18:45:56.035Z,1.80
2017-12-15T18:48:24.386Z,1.88
2017-12-15T18:50:52.715Z,1.78
2017-12-15T18:53:21.066Z,1.62
2017-12-15T18:55:49.455Z,1.57
2017-12-15T18:58:17.795Z,1.70
2017-12-15T19:00:46.136Z,1.71
2017-12-15T19:03:14.519Z,1.90
2017-12-15T19:05:42.869Z,1.90
2017-12-15T19:08:11.263Z,1.83
2017-12-15T19:10:39.640Z,1.81
2017-12-15T19:13:07.989Z,1.66
2017-12-15T19:15:36.342Z,1.53
2017-12-15T19:18:04.706Z,1.64
2017-12-15T19:20:33.120Z,1.42
2017-12-15T19:23:01.535Z,1.85
2017-12-15T19:25:29.891Z,1.76
2017-12-15T19:27:58.357Z,1.77
2017-12-15T19:30:26.697Z,1.54
2017-12-15T19:32:55.066Z,1.50
2017-12-15T19:35:23.414Z,1.53
2017-12-15T19:37:51.751Z,1.51
2017-12-15T19:40:20.104Z,1.53
2017-12-15T19:42:48.455Z,1.26
2017-12-15T19:45:16.828Z,1.28
2017-12-15T19:47:45.181Z,1.50
2017-12-15T19:50:13.527Z,1.26
2017-12-15T19:52:41.864Z,1.32
2017-12-15T19:55:10.212Z,1.68
2017-12-15T19:57:38.662Z,1.45
2017-12-15T20:00:07.040Z,2.04
2017-12-15T20:02:35.409Z,2.29
2017-12-15T20:05:03.752Z,2.15
2017-12-15T20:07:32.087Z,2.30
2017-12-15T20:10:00.578Z,2.55
2017-12-15T20:12:28.911Z,2.86
2017-12-15T20:14:57.253Z,2.95
2017-12-15T20:17:25.598Z,2.95
2017-12-15T20:19:53.952Z,2.98
2017-12-15T20:22:22.344Z,2.85
2017-12-15T20:24:50.684Z,2.74
2017-12-15T20:27:19.052Z,2.87
2017-12-15T20:29:47.414Z,2.79
2017-12-15T20:32:15.796Z,3.07
2017-12-15T20:34:44.177Z,2.92
2017-12-15T20:37:12.572Z,2.81
2017-12-15T20:39:40.928Z,3.11
2017-12-15T20:42:09.274Z,3.17
2017-12-15T20:44:37.606Z,3.33
2017-12-15T20:47:06.002Z,3.50
2017-12-15T20:49:34.351Z,3.64
2017-12-15T20:52:02.707Z,3.63
2017-12-15T20:54:31.086Z,3.25
2017-12-15T20:56:59.434Z,3.50
2017-12-15T20:59:27.803Z,3.50
2017-12-15T21:01:56.151Z,3.18
2017-12-15T21:04:24.537Z,3.32
2017-12-15T21:06:52.878Z,3.26
2017-12-15T21:09:21.267Z,3.51
2017-12-15T21:11:49.641Z,3.08
2017-12-15T21:14:18.001Z,3.13
2017-12-15T21:16:46.332Z,3.33
2017-12-15T21:19:14.678Z,3.24
2017-12-15T21:21:43.036Z,3.46
2017-12-15T21:24:11.399Z,3.29
2017-12-15T21:26:39.806Z,3.37
2017-12-15T21:29:08.151Z,3.41
2017-12-15T21:31:36.504Z,3.07
2017-12-15T21:34:04.849Z,3.27
2017-12-15T21:36:33.231Z,3.12
2017-12-15T21:39:01.594Z,3.00
2017-12-15T21:41:29.954Z,3.06
2017-12-15T21:43:58.298Z,3.11
2017-12-15T21:46:26.721Z,2.95
2017-12-15T21:48:55.087Z,3.12
2017-12-15T21:51:23.422Z,3.18
2017-12-15T21:53:51.771Z,3.11
2017-12-15T21:56:20.188Z,3.01
2017-12-15T21:58:48.527Z,2.88
2017-12-15T22:01:16.907Z,3.10
2017-12-15T22:03:45.247Z,2.88
2017-12-15T22:06:13.665Z,2.86
2017-12-15T22:08:42.001Z,2.69
2017-12-15T22:11:10.359Z,2.51
2017-12-15T22:13:38.740Z,2.29
2017-12-15T22:16:07.082Z,2.11
2017-12-15T22:18:35.432Z,2.11
2017-12-15T22:21:03.777Z,1.92
2017-12-15T22:23:32.145Z,2.07
2017-12-15T22:26:00.518Z,1.89
2017-12-15T22:28:28.922Z,1.77
2017-12-15T22:30:57.317Z,1.67
2017-12-15T22:33:25.674Z,2.03
2017-12-15T22:35:54.008Z,2.20
2017-12-15T22:38:22.381Z,1.99
2017-12-15T22:40:50.767Z,1.73
2017-12-15T22:43:19.111Z,1.71
2017-12-15T22:45:47.463Z,2.13
2017-12-15T22:48:15.802Z,2.28
2017-12-15T22:50:44.182Z,2.39
2017-12-15T22:53:12.527Z,2.34
2017-12-15T22:55:40.890Z,2.66
2017-12-15T22:58:09.227Z,2.64
2017-12-15T23:00:37.565Z,2.69
2017-12-15T23:03:05.953Z,2.40
2017-12-15T23:05:34.322Z,2.53
2017-12-15T23:08:02.677Z,2.64
2017-12-15T23:10:31.018Z,2.91
2017-12-15T23:12:59.712Z,2.93
2017-12-15T23:15:28.104Z,3.20
2017-12-15T23:17:56.450Z,3.12
2017-12-15T23:20:24.781Z,3.29
2017-12-15T23:22:53.119Z,3.03
2017-12-15T23:25:21.462Z,3.16
2017-12-15T23:27:49.834Z,3.03
2017-12-15T23:30:18.171Z,3.11
2017-12-15T23:32:46.547Z,3.05
2017-12-15T23:35:14.884Z,3.17
2017-12-15T23:37:43.252Z,3.53
2017-12-15T23:40:11.617Z,3.56
2017-12-15T23:42:39.943Z,3.29
2017-12-15T23:45:08.381Z,3.19
2017-12-15T23:47:36.766Z,3.30
2017-12-15T23:50:05.113Z,3.30
2017-12-15T23:52:33.516Z,3.28
2017-12-15T23:55:13.535Z,3.12
2017-12-15T23:57:41.915Z,3.04
